Time;durP1;ratioP1;P1;durP2;ratioP2;P2;SDS_P1;SDS_P2;PMS_P1;PMS_P2;Temp;Humidity;BMP_temperature;BMP_pressure;BME280_temperature;BME280_humidity;BME280_pressure;Samples;Min_cycle;Max_cycle;Signal;HPM_P1;HPM_P2
2024/01/30 00:01:16;;;;;;;22.55;10.57;;;;;;;-144.74;100.00;63161.41;4975906;28;20034;-72
2024/01/30 00:03:41;;;;;;;16.85;9.60;;;;;;;-144.74;100.00;63161.41;4965052;28;20033;-72
2024/01/30 00:06:08;;;;;;;20.95;10.27;;;;;;;-144.74;100.00;63161.41;4968780;28;20113;-71
2024/01/30 00:08:33;;;;;;;22.33;9.95;;;;;;;-144.74;100.00;63161.41;4965804;28;20113;-73
2024/01/30 00:10:59;;;;;;;20.98;8.32;;;;;;;-144.74;100.00;63161.41;4961289;28;20077;-73
2024/01/30 00:13:24;;;;;;;19.38;8.95;;;;;;;-144.74;100.00;63161.41;4971725;28;20038;-71
2024/01/30 00:15:49;;;;;;;22.95;9.90;;;;;;;-144.74;100.00;63161.41;4946072;28;20042;-72
2024/01/30 00:18:15;;;;;;;19.13;9.45;;;;;;;-144.74;100.00;63161.41;4958044;28;20038;-72
2024/01/30 00:20:40;;;;;;;17.88;9.15;;;;;;;-144.74;100.00;63161.41;4961992;28;20118;-72
2024/01/30 00:23:06;;;;;;;17.10;9.52;;;;;;;-144.74;100.00;63161.41;4960934;28;20022;-72
2024/01/30 00:25:33;;;;;;;20.08;8.77;;;;;;;-144.74;100.00;63161.41;4954099;28;20387;-72
2024/01/30 00:27:58;;;;;;;21.90;9.85;;;;;;;-144.74;100.00;63161.41;4971236;28;20027;-72
2024/01/30 00:30:24;;;;;;;18.27;10.00;;;;;;;-144.74;100.00;63161.41;4956261;28;20037;-71
2024/01/30 00:32:49;;;;;;;17.75;9.85;;;;;;;-144.74;100.00;63161.41;4961947;28;20038;-72
2024/01/30 00:35:14;;;;;;;17.92;10.02;;;;;;;-144.74;100.00;63161.41;4968284;28;20065;-72
2024/01/30 00:37:40;;;;;;;18.02;9.40;;;;;;;-144.74;100.00;63161.41;4974680;28;20034;-72
2024/01/30 00:40:05;;;;;;;19.92;9.55;;;;;;;-144.74;100.00;63161.41;4957381;28;20035;-71
2024/01/30 00:42:31;;;;;;;23.55;10.20;;;;;;;-144.74;100.00;63161.41;4964213;28;20030;-72
2024/01/30 00:44:56;;;;;;;15.85;9.25;;;;;;;-144.74;100.00;63161.41;4950492;28;20129;-72
2024/01/30 00:47:21;;;;;;;16.67;9.10;;;;;;;-144.74;100.00;63161.41;4969910;28;20027;-73
2024/01/30 00:49:47;;;;;;;17.50;9.55;;;;;;;-144.74;100.00;63161.41;4956915;28;20144;-71
2024/01/30 00:52:15;;;;;;;16.60;9.38;;;;;;;-144.74;100.00;63161.41;4955340;28;20532;-71
2024/01/30 00:54:41;;;;;;;20.70;9.88;;;;;;;-144.74;100.00;63161.41;4950850;28;20034;-72
2024/01/30 00:57:06;;;;;;;19.35;9.18;;;;;;;-144.74;100.00;63161.41;4975147;28;20034;-72
2024/01/30 00:59:32;;;;;;;16.98;9.38;;;;;;;-144.74;100.00;63161.41;4960937;28;20164;-72
2024/01/30 01:01:57;;;;;;;18.27;9.13;;;;;;;-144.74;100.00;63161.41;4956981;28;20030;-72
2024/01/30 01:04:22;;;;;;;22.50;9.55;;;;;;;-144.74;100.00;63161.41;4958262;28;20019;-72
2024/01/30 01:06:51;;;;;;;15.77;8.68;;;;;;;-144.74;100.00;63161.41;4956134;28;20031;-72
2024/01/30 01:09:18;;;;;;;20.13;8.80;;;;;;;-144.74;100.00;63161.41;4960046;28;20050;-71
2024/01/30 01:11:44;;;;;;;25.05;9.27;;;;;;;-144.74;100.00;63161.41;4956257;28;20537;-72
2024/01/30 01:14:09;;;;;;;19.60;8.75;;;;;;;-144.74;100.00;63161.41;4974488;28;20061;-72
2024/01/30 01:16:34;;;;;;;15.35;8.02;;;;;;;-144.74;100.00;63161.41;4956345;28;20082;-72
2024/01/30 01:19:00;;;;;;;15.68;8.65;;;;;;;-144.74;100.00;63161.41;4955093;28;20027;-72
2024/01/30 01:21:25;;;;;;;19.38;8.20;;;;;;;-144.74;100.00;63161.41;4937781;28;20039;-73
2024/01/30 01:23:54;;;;;;;16.88;8.27;;;;;;;-144.74;100.00;63161.41;4950441;28;20026;-72
2024/01/30 01:26:19;;;;;;;17.25;8.80;;;;;;;-144.74;100.00;63161.41;4957706;28;20134;-72
2024/01/30 01:28:44;;;;;;;19.20;9.15;;;;;;;-144.74;100.00;63161.41;4955253;28;20065;-72
2024/01/30 01:31:09;;;;;;;19.35;8.85;;;;;;;-144.74;100.00;63161.41;4958457;28;20034;-73
2024/01/30 01:33:36;;;;;;;20.85;9.38;;;;;;;-144.74;100.00;63161.41;4946704;28;20042;-71
2024/01/30 01:36:02;;;;;;;16.30;8.25;;;;;;;-144.74;100.00;63161.41;4969836;28;20034;-72
2024/01/30 01:38:28;;;;;;;22.50;9.48;;;;;;;-144.74;100.00;63161.41;4961131;28;20417;-71
2024/01/30 01:40:56;;;;;;;17.67;9.02;;;;;;;-144.74;100.00;63161.41;4949828;28;20035;-72
2024/01/30 01:43:21;;;;;;;17.42;9.20;;;;;;;-144.74;100.00;63161.41;4952912;28;20022;-72
2024/01/30 01:45:50;;;;;;;25.40;9.95;;;;;;;-144.74;100.00;63161.41;4983716;28;20039;-72
2024/01/30 01:48:16;;;;;;;17.50;8.73;;;;;;;-144.74;100.00;63161.41;4955659;28;20039;-73
2024/01/30 01:50:42;;;;;;;19.60;8.63;;;;;;;-144.74;100.00;63161.41;4956074;28;20101;-72
2024/01/30 01:53:08;;;;;;;15.30;8.70;;;;;;;-144.74;100.00;63161.41;4964234;28;20397;-73
2024/01/30 01:55:35;;;;;;;22.05;9.88;;;;;;;-144.74;100.00;63161.41;4953256;28;20109;-73
2024/01/30 01:58:04;;;;;;;15.93;8.63;;;;;;;-144.74;100.00;63161.41;4973084;28;20033;-72
2024/01/30 02:00:33;;;;;;;18.08;9.07;;;;;;;-144.74;100.00;63161.41;4956723;28;20101;-72
2024/01/30 02:02:59;;;;;;;14.80;9.10;;;;;;;-144.74;100.00;63161.41;4957711;28;20101;-72
2024/01/30 02:05:25;;;;;;;20.48;8.82;;;;;;;-144.74;100.00;63161.41;4960607;28;20044;-72
2024/01/30 02:07:50;;;;;;;20.05;8.50;;;;;;;-144.74;100.00;63161.41;4963251;28;20130;-73
2024/01/30 02:10:15;;;;;;;18.20;8.73;;;;;;;-144.74;100.00;63161.41;4944124;28;20035;-72
2024/01/30 02:12:41;;;;;;;17.95;8.95;;;;;;;-144.74;100.00;63161.41;4971945;28;20042;-73
2024/01/30 02:15:07;;;;;;;18.23;9.52;;;;;;;-144.74;100.00;63161.41;4976366;28;20053;-72
2024/01/30 02:17:33;;;;;;;16.45;9.23;;;;;;;-144.74;100.00;63161.41;4960069;28;20066;-72
2024/01/30 02:19:59;;;;;;;24.30;8.45;;;;;;;-144.74;100.00;63161.41;4963187;28;20073;-72
2024/01/30 02:22:24;;;;;;;14.40;8.90;;;;;;;-144.74;100.00;63161.41;4955618;28;20544;-72
2024/01/30 02:24:49;;;;;;;15.27;8.27;;;;;;;-144.74;100.00;63161.41;4966776;28;20045;-72
2024/01/30 02:27:15;;;;;;;17.75;9.82;;;;;;;-144.74;100.00;63161.41;4962426;28;20154;-72
2024/01/30 02:29:40;;;;;;;17.23;9.27;;;;;;;-144.74;100.00;63161.41;4960038;28;20031;-72
2024/01/30 02:32:06;;;;;;;23.70;9.98;;;;;;;-144.74;100.00;63161.41;4966781;28;20505;-72
2024/01/30 02:34:31;;;;;;;14.60;9.23;;;;;;;-144.74;100.00;63161.41;4957896;28;20497;-72
2024/01/30 02:36:57;;;;;;;15.93;9.23;;;;;;;-144.74;100.00;63161.41;4955449;28;20035;-72
2024/01/30 02:39:22;;;;;;;18.23;9.77;;;;;;;-144.74;100.00;63161.41;4967085;28;20466;-72
2024/01/30 02:41:47;;;;;;;20.10;8.88;;;;;;;-144.74;100.00;63161.41;4962782;28;20058;-72
2024/01/30 02:44:13;;;;;;;22.67;9.30;;;;;;;-144.74;100.00;63161.41;4968829;28;20037;-73
2024/01/30 02:46:38;;;;;;;16.52;8.93;;;;;;;-144.74;100.00;63161.41;4967100;28;20034;-71
2024/01/30 02:49:06;;;;;;;18.45;10.27;;;;;;;-144.74;100.00;63161.41;4962767;28;20089;-71
2024/01/30 02:51:31;;;;;;;19.65;10.02;;;;;;;-144.74;100.00;63161.41;4961398;28;20038;-72
2024/01/30 02:53:57;;;;;;;18.73;9.95;;;;;;;-144.74;100.00;63161.41;4959159;28;20030;-72
2024/01/30 02:56:22;;;;;;;18.05;9.98;;;;;;;-144.74;100.00;63161.41;4966207;28;20031;-72
2024/01/30 02:58:47;;;;;;;22.38;10.85;;;;;;;-144.74;100.00;63161.41;4978387;28;20117;-72
2024/01/30 03:01:13;;;;;;;18.65;9.45;;;;;;;-144.74;100.00;63161.41;4972032;28;20498;-72
2024/01/30 03:03:40;;;;;;;16.65;8.95;;;;;;;-144.74;100.00;63161.41;4956129;28;20038;-72
2024/01/30 03:06:05;;;;;;;18.48;10.15;;;;;;;-144.74;100.00;63161.41;4954044;28;20046;-72
2024/01/30 03:08:31;;;;;;;29.77;9.98;;;;;;;-144.74;100.00;63161.41;4962476;28;20027;-73
2024/01/30 03:10:56;;;;;;;19.58;10.35;;;;;;;-144.74;100.00;63161.41;4963752;28;20031;-73
2024/01/30 03:13:23;;;;;;;19.75;10.20;;;;;;;-144.74;100.00;63161.41;4953769;28;20497;-72
2024/01/30 03:15:48;;;;;;;18.25;10.02;;;;;;;-144.74;100.00;63161.41;4957734;28;20121;-71
2024/01/30 03:18:13;;;;;;;16.40;9.52;;;;;;;-144.74;100.00;63161.41;4974327;28;20518;-72
2024/01/30 03:20:39;;;;;;;17.92;10.27;;;;;;;-144.74;100.00;63161.41;4960912;28;20039;-72
2024/01/30 03:23:04;;;;;;;17.92;10.32;;;;;;;-144.74;100.00;63161.41;4971529;28;20031;-72
2024/01/30 03:25:29;;;;;;;18.75;11.00;;;;;;;-144.74;100.00;63161.41;4955037;28;20039;-72
2024/01/30 03:27:55;;;;;;;20.05;11.15;;;;;;;-144.74;100.00;63161.41;4956941;28;20026;-71
2024/01/30 03:30:20;;;;;;;22.13;10.98;;;;;;;-144.74;100.00;63161.41;4958621;28;20034;-72
2024/01/30 03:32:45;;;;;;;18.27;10.25;;;;;;;-144.74;100.00;63161.41;4975566;28;20089;-72
2024/01/30 03:35:11;;;;;;;16.95;10.38;;;;;;;-144.74;100.00;63161.41;4958118;28;20036;-72
2024/01/30 03:37:36;;;;;;;21.42;11.02;;;;;;;-144.74;100.00;63161.41;4963032;28;20504;-72
2024/01/30 03:40:03;;;;;;;18.52;10.32;;;;;;;-144.74;100.00;63161.41;4971026;28;20083;-73
2024/01/30 03:42:28;;;;;;;21.67;10.65;;;;;;;-144.74;100.00;63161.41;4972504;28;20026;-71
2024/01/30 03:44:54;;;;;;;20.90;10.45;;;;;;;-144.74;100.00;63161.41;4957973;28;20374;-74
2024/01/30 03:47:20;;;;;;;26.13;10.93;;;;;;;-144.74;100.00;63161.41;4956285;28;20019;-71
2024/01/30 03:49:46;;;;;;;23.23;11.00;;;;;;;-144.74;100.00;63161.41;4973796;28;20037;-72
2024/01/30 03:52:12;;;;;;;18.95;10.70;;;;;;;-144.74;100.00;63161.41;4959341;28;20026;-72
2024/01/30 03:54:37;;;;;;;21.88;10.48;;;;;;;-144.74;100.00;63161.41;4955177;28;20086;-72
2024/01/30 03:57:02;;;;;;;20.00;10.75;;;;;;;-144.74;100.00;63161.41;4969729;28;20022;-72
2024/01/30 03:59:28;;;;;;;22.17;11.70;;;;;;;-144.74;100.00;63161.41;4953675;28;20026;-72
2024/01/30 04:01:54;;;;;;;27.88;12.20;;;;;;;-144.74;100.00;63161.41;4960507;28;20030;-72
2024/01/30 04:04:20;;;;;;;26.35;11.98;;;;;;;-144.74;100.00;63161.41;4971743;28;20026;-72
2024/01/30 04:06:45;;;;;;;22.35;12.48;;;;;;;-144.74;100.00;63161.41;4946918;28;20115;-72
2024/01/30 04:09:13;;;;;;;20.38;11.30;;;;;;;-144.74;100.00;63161.41;4958538;28;20442;-73
2024/01/30 04:11:38;;;;;;;24.38;12.20;;;;;;;-144.74;100.00;63161.41;4957653;28;20042;-72
2024/01/30 04:14:04;;;;;;;19.92;12.10;;;;;;;-144.74;100.00;63161.41;4947018;29;20035;-72
2024/01/30 04:16:29;;;;;;;19.52;11.05;;;;;;;-144.74;100.00;63161.41;4943558;28;20055;-73
2024/01/30 04:18:54;;;;;;;26.15;12.15;;;;;;;-144.74;100.00;63161.41;4965862;28;20034;-72
2024/01/30 04:21:23;;;;;;;23.77;13.05;;;;;;;-144.74;100.00;63161.41;4948301;28;20031;-72
2024/01/30 04:23:48;;;;;;;20.98;12.27;;;;;;;-144.74;100.00;63161.41;4957510;28;20027;-73
2024/01/30 04:26:14;;;;;;;23.95;12.77;;;;;;;-144.74;100.00;63161.41;4949754;28;20130;-72
2024/01/30 04:28:44;;;;;;;21.20;10.65;;;;;;;-144.74;100.00;63161.41;4966390;28;20031;-72
2024/01/30 04:31:10;;;;;;;30.33;11.07;;;;;;;-144.74;100.00;63161.41;4959853;28;20073;-72
2024/01/30 04:33:35;;;;;;;24.20;12.75;;;;;;;-144.74;100.00;63161.41;4957666;28;20467;-71
2024/01/30 04:36:01;;;;;;;29.10;12.85;;;;;;;-144.74;100.00;63161.41;4957143;28;20088;-71
2024/01/30 04:38:26;;;;;;;22.92;12.27;;;;;;;-144.74;100.00;63161.41;4974706;28;20035;-71
2024/01/30 04:40:52;;;;;;;22.63;12.30;;;;;;;-144.74;100.00;63161.41;4963280;28;20038;-71
2024/01/30 04:43:18;;;;;;;23.40;12.30;;;;;;;-144.74;100.00;63161.41;4962142;28;20037;-72
2024/01/30 04:45:44;;;;;;;19.13;12.18;;;;;;;-144.74;100.00;63161.41;4974229;28;20042;-72
2024/01/30 04:48:09;;;;;;;26.10;12.90;;;;;;;-144.74;100.00;63161.41;4957544;28;20027;-72
2024/01/30 04:50:34;;;;;;;28.15;14.05;;;;;;;-144.74;100.00;63161.41;4956845;28;20038;-72
2024/01/30 04:53:00;;;;;;;28.67;12.57;;;;;;;-144.74;100.00;63161.41;4974231;28;20039;-73
2024/01/30 04:55:25;;;;;;;24.77;13.57;;;;;;;-144.74;100.00;63161.41;4956560;28;20054;-72
2024/01/30 04:57:50;;;;;;;31.90;13.38;;;;;;;-144.74;100.00;63161.41;4964976;28;20030;-72
2024/01/30 05:00:16;;;;;;;24.38;13.07;;;;;;;-144.74;100.00;63161.41;4956798;28;20098;-72
2024/01/30 05:02:41;;;;;;;26.50;13.05;;;;;;;-144.74;100.00;63161.41;4974274;28;20482;-72
2024/01/30 05:05:10;;;;;;;21.58;13.75;;;;;;;-144.74;100.00;63161.41;4957072;28;20090;-72
2024/01/30 05:07:36;;;;;;;27.20;14.15;;;;;;;-144.74;100.00;63161.41;4948866;28;20054;-72
2024/01/30 05:10:02;;;;;;;27.52;13.95;;;;;;;-144.74;100.00;63161.41;4956543;28;20028;-71
2024/01/30 05:12:27;;;;;;;27.88;14.70;;;;;;;-144.74;100.00;63161.41;4961936;28;20104;-71
2024/01/30 05:14:53;;;;;;;24.15;13.57;;;;;;;-144.74;100.00;63161.41;4970414;28;20061;-72
2024/01/30 05:17:18;;;;;;;25.55;14.48;;;;;;;-144.74;100.00;63161.41;4960015;28;20121;-73
2024/01/30 05:19:43;;;;;;;32.92;14.63;;;;;;;-144.74;100.00;63161.41;4950238;28;20053;-71
2024/01/30 05:22:09;;;;;;;30.23;14.95;;;;;;;-144.74;100.00;63161.41;4959864;28;20026;-71
2024/01/30 05:24:34;;;;;;;31.00;15.82;;;;;;;-144.74;100.00;63161.41;4969001;28;20035;-74
2024/01/30 05:26:59;;;;;;;26.80;15.15;;;;;;;-144.74;100.00;63161.41;4968982;28;20536;-73
2024/01/30 05:29:25;;;;;;;32.42;15.68;;;;;;;-144.74;100.00;63161.41;4973926;28;20031;-72
2024/01/30 05:31:50;;;;;;;31.02;15.52;;;;;;;-144.74;100.00;63161.41;4970586;28;20157;-72
2024/01/30 05:34:18;;;;;;;28.40;15.02;;;;;;;-144.74;100.00;63161.41;4956473;28;20027;-72
2024/01/30 05:36:44;;;;;;;29.02;15.35;;;;;;;-144.74;100.00;63161.41;4955646;28;20035;-72
2024/01/30 05:39:13;;;;;;;29.67;15.40;;;;;;;-144.74;100.00;63161.41;4956104;28;20101;-72
2024/01/30 05:41:38;;;;;;;30.20;14.88;;;;;;;-144.74;100.00;63161.41;4973673;28;20023;-72
2024/01/30 05:44:04;;;;;;;26.60;15.77;;;;;;;-144.74;100.00;63161.41;4956049;28;20030;-72
2024/01/30 05:46:29;;;;;;;26.15;15.27;;;;;;;-144.74;100.00;63161.41;4965777;28;20565;-72
2024/01/30 05:48:54;;;;;;;31.42;15.23;;;;;;;-144.74;100.00;63161.41;4954580;28;20019;-72
2024/01/30 05:51:20;;;;;;;27.98;15.27;;;;;;;-144.74;100.00;63161.41;4956016;28;20031;-72
2024/01/30 05:53:45;;;;;;;27.58;15.40;;;;;;;-144.74;100.00;63161.41;4954832;28;20037;-72
2024/01/30 05:56:10;;;;;;;31.80;15.55;;;;;;;-144.74;100.00;63161.41;4954745;28;20034;-72
2024/01/30 05:58:37;;;;;;;31.80;15.75;;;;;;;-144.74;100.00;63161.41;4949895;28;20038;-74
2024/01/30 06:01:06;;;;;;;28.75;14.93;;;;;;;-144.74;100.00;63161.41;4971211;28;20042;-72
2024/01/30 06:03:31;;;;;;;35.00;16.75;;;;;;;-144.74;100.00;63161.41;4956176;28;20026;-72
2024/01/30 06:06:00;;;;;;;27.75;15.57;;;;;;;-144.74;100.00;63161.41;4959435;28;20031;-71
2024/01/30 06:08:25;;;;;;;36.55;16.70;;;;;;;-144.74;100.00;63161.41;4959392;28;20121;-72
2024/01/30 06:10:51;;;;;;;29.92;16.25;;;;;;;-144.74;100.00;63161.41;4964398;28;20125;-72
2024/01/30 06:13:16;;;;;;;28.15;17.02;;;;;;;-144.74;100.00;63161.41;4966000;28;20117;-72
2024/01/30 06:15:41;;;;;;;27.60;16.20;;;;;;;-144.74;100.00;63161.41;4958751;28;20449;-70
2024/01/30 06:18:07;;;;;;;29.05;16.05;;;;;;;-144.74;100.00;63161.41;4950319;28;20101;-72
2024/01/30 06:20:32;;;;;;;27.83;16.00;;;;;;;-144.74;100.00;63161.41;4952419;28;20431;-72
2024/01/30 06:22:57;;;;;;;37.33;16.75;;;;;;;-144.74;100.00;63161.41;4972746;28;20058;-72
2024/01/30 06:25:23;;;;;;;28.08;15.98;;;;;;;-144.74;100.00;63161.41;4976536;28;20049;-72
2024/01/30 06:27:48;;;;;;;28.95;16.40;;;;;;;-144.74;100.00;63161.41;4962175;28;20019;-72
2024/01/30 06:30:14;;;;;;;23.75;15.90;;;;;;;-144.74;100.00;63161.41;4957078;28;20050;-72
2024/01/30 06:32:39;;;;;;;29.00;17.00;;;;;;;-144.74;100.00;63161.41;4970758;28;20046;-72
2024/01/30 06:35:05;;;;;;;33.47;16.48;;;;;;;-144.74;100.00;63161.41;4974507;28;20038;-72
2024/01/30 06:37:31;;;;;;;33.95;19.10;;;;;;;-144.74;100.00;63161.41;4958715;28;20159;-72
2024/01/30 06:39:56;;;;;;;33.05;16.90;;;;;;;-144.74;100.00;63161.41;4974772;28;20126;-73
2024/01/30 06:42:21;;;;;;;32.40;16.70;;;;;;;-144.74;100.00;63161.41;4958302;28;20029;-72
2024/01/30 06:44:47;;;;;;;30.25;16.20;;;;;;;-144.74;100.00;63161.41;4959760;28;20034;-72
2024/01/30 06:47:13;;;;;;;35.30;17.58;;;;;;;-144.74;100.00;63161.41;4956836;28;20423;-72
2024/01/30 06:49:38;;;;;;;33.35;17.23;;;;;;;-144.74;100.00;63161.41;4974814;28;20035;-72
2024/01/30 06:52:07;;;;;;;30.90;16.27;;;;;;;-144.74;100.00;63161.41;4958842;28;20027;-67
2024/01/30 06:54:33;;;;;;;28.70;17.13;;;;;;;-144.74;100.00;63161.41;4958715;28;20042;-68
2024/01/30 06:56:58;;;;;;;36.42;17.92;;;;;;;-144.74;100.00;63161.41;4959622;28;20363;-66
2024/01/30 06:59:24;;;;;;;33.25;17.40;;;;;;;-144.74;100.00;63161.41;4976292;28;20049;-67
2024/01/30 07:01:49;;;;;;;33.85;18.98;;;;;;;-144.74;100.00;63161.41;4951910;28;20082;-67
2024/01/30 07:04:15;;;;;;;26.48;16.52;;;;;;;-144.74;100.00;63161.41;4957413;28;20031;-67
2024/01/30 07:06:41;;;;;;;27.95;16.35;;;;;;;-144.74;100.00;63161.41;4968442;28;20022;-66
2024/01/30 07:09:06;;;;;;;32.42;17.30;;;;;;;-144.74;100.00;63161.41;4977235;28;20034;-67
2024/01/30 07:11:32;;;;;;;31.70;17.65;;;;;;;-144.74;100.00;63161.41;4989310;28;20066;-66
2024/01/30 07:13:57;;;;;;;30.65;18.55;;;;;;;-144.74;100.00;63161.41;4943038;28;20039;-67
2024/01/30 07:16:23;;;;;;;29.08;16.42;;;;;;;-144.74;100.00;63161.41;4976893;28;20066;-67
2024/01/30 07:18:48;;;;;;;30.30;18.45;;;;;;;-144.74;100.00;63161.41;4956703;28;20035;-67
2024/01/30 07:21:14;;;;;;;32.88;18.27;;;;;;;-144.74;100.00;63161.41;4964027;28;20054;-69
2024/01/30 07:23:41;;;;;;;33.72;18.27;;;;;;;-144.74;100.00;63161.41;4978957;28;20038;-67
2024/01/30 07:26:06;;;;;;;27.50;17.33;;;;;;;-144.74;100.00;63161.41;4953637;28;20517;-68
2024/01/30 07:28:32;;;;;;;37.53;18.45;;;;;;;-144.74;100.00;63161.41;4960644;28;20026;-67
2024/01/30 07:30:57;;;;;;;37.05;18.63;;;;;;;-144.74;100.00;63161.41;4960433;28;20039;-67
2024/01/30 07:33:23;;;;;;;35.70;19.00;;;;;;;-144.74;100.00;63161.41;4948439;28;20042;-67
2024/01/30 07:35:52;;;;;;;35.20;19.42;;;;;;;-144.74;100.00;63161.41;4956275;28;20429;-67
2024/01/30 07:38:17;;;;;;;36.05;18.75;;;;;;;-144.74;100.00;63161.41;4967410;28;20062;-67
2024/01/30 07:40:42;;;;;;;34.13;18.27;;;;;;;-144.74;100.00;63161.41;4954029;28;20038;-66
2024/01/30 07:43:08;;;;;;;40.05;19.42;;;;;;;-144.74;100.00;63161.41;4958193;28;20041;-66
2024/01/30 07:45:33;;;;;;;36.50;19.38;;;;;;;-144.74;100.00;63161.41;4963492;28;20039;-66
2024/01/30 07:47:59;;;;;;;37.38;18.98;;;;;;;-144.74;100.00;63161.41;4955982;28;20049;-67
2024/01/30 07:50:25;;;;;;;37.47;19.25;;;;;;;-144.74;100.00;63161.41;4956528;28;20066;-67
2024/01/30 07:52:54;;;;;;;35.70;19.95;;;;;;;-144.74;100.00;63161.41;4979032;28;20077;-67
2024/01/30 07:55:20;;;;;;;35.70;19.20;;;;;;;-144.74;100.00;63161.41;4958871;28;20042;-67
2024/01/30 07:57:46;;;;;;;39.00;19.05;;;;;;;-144.74;100.00;63161.41;4961740;28;20114;-66
2024/01/30 08:00:11;;;;;;;32.88;19.10;;;;;;;-144.74;100.00;63161.41;4980110;28;20134;-67
2024/01/30 08:02:37;;;;;;;33.97;18.73;;;;;;;-144.74;100.00;63161.41;4975962;28;20046;-67
2024/01/30 08:05:02;;;;;;;37.17;19.10;;;;;;;-144.74;100.00;63161.41;4957482;28;20049;-68
2024/01/30 08:07:29;;;;;;;38.35;19.63;;;;;;;-144.74;100.00;63161.41;4968200;28;20030;-67
2024/01/30 08:09:55;;;;;;;36.60;19.00;;;;;;;-144.74;100.00;63161.41;4954684;28;20027;-67
2024/01/30 08:12:20;;;;;;;34.55;18.70;;;;;;;-144.74;100.00;63161.41;4957363;28;20109;-67
2024/01/30 08:14:45;;;;;;;32.17;18.45;;;;;;;-144.74;100.00;63161.41;4961871;28;20406;-67
2024/01/30 08:17:11;;;;;;;37.80;18.20;;;;;;;-144.74;100.00;63161.41;4962836;28;20031;-65
2024/01/30 08:19:36;;;;;;;35.50;19.50;;;;;;;-144.74;100.00;63161.41;4954981;28;20061;-67
2024/01/30 08:22:01;;;;;;;34.92;18.90;;;;;;;-144.74;100.00;63161.41;4977988;28;20072;-66
2024/01/30 08:24:27;;;;;;;35.38;19.48;;;;;;;-144.74;100.00;63161.41;4954837;28;20027;-67
2024/01/30 08:26:52;;;;;;;39.78;20.00;;;;;;;-144.74;100.00;63161.41;4981804;28;20037;-66
2024/01/30 08:29:17;;;;;;;40.22;20.98;;;;;;;-144.74;100.00;63161.41;4964510;28;20030;-66
2024/01/30 08:31:44;;;;;;;37.47;20.52;;;;;;;-144.74;100.00;63161.41;4969393;28;20030;-69
2024/01/30 08:34:09;;;;;;;35.13;18.50;;;;;;;-144.74;100.00;63161.41;4961398;28;20030;-66
2024/01/30 08:36:35;;;;;;;31.27;18.90;;;;;;;-144.74;100.00;63161.41;4978276;28;20046;-66
2024/01/30 08:39:00;;;;;;;36.53;19.88;;;;;;;-144.74;100.00;63161.41;4949191;28;20572;-67
2024/01/30 08:41:25;;;;;;;35.42;20.48;;;;;;;-144.74;100.00;63161.41;4954122;28;20030;-67
2024/01/30 08:43:52;;;;;;;50.30;20.88;;;;;;;-144.74;100.00;63161.41;4957333;28;20089;-67
2024/01/30 08:46:18;;;;;;;31.60;18.70;;;;;;;-144.74;100.00;63161.41;4958974;28;20154;-66
2024/01/30 08:48:44;;;;;;;34.90;19.30;;;;;;;-144.74;100.00;63161.41;4958344;28;20069;-67
2024/01/30 08:51:09;;;;;;;43.30;19.10;;;;;;;-144.74;100.00;63161.41;4953998;28;20035;-66
2024/01/30 08:53:35;;;;;;;37.65;19.40;;;;;;;-144.74;100.00;63161.41;4961393;28;20021;-67
2024/01/30 08:56:02;;;;;;;33.30;18.88;;;;;;;-144.74;100.00;63161.41;4958774;28;20050;-66
2024/01/30 08:58:27;;;;;;;29.58;18.30;;;;;;;-144.74;100.00;63161.41;4965890;28;20034;-67
2024/01/30 09:00:53;;;;;;;35.92;19.17;;;;;;;-144.74;100.00;63161.41;4956764;28;20117;-65
2024/01/30 09:03:18;;;;;;;31.67;19.05;;;;;;;-144.74;100.00;63161.41;4954572;28;20127;-67
2024/01/30 09:05:43;;;;;;;37.65;17.70;;;;;;;-144.74;100.00;63161.41;4946462;28;20024;-65
2024/01/30 09:08:10;;;;;;;38.80;19.70;;;;;;;-144.74;100.00;63161.41;4953833;28;20018;-67
2024/01/30 09:10:35;;;;;;;42.42;19.20;;;;;;;-144.74;100.00;63161.41;4955664;28;20035;-67
2024/01/30 09:13:00;;;;;;;38.45;19.33;;;;;;;-144.74;100.00;63161.41;4949428;28;20106;-66
2024/01/30 09:15:26;;;;;;;29.40;18.25;;;;;;;-144.74;100.00;63161.41;4953080;28;20089;-67
2024/01/30 09:17:51;;;;;;;31.85;18.45;;;;;;;-144.74;100.00;63161.41;4967144;28;20501;-66
2024/01/30 09:20:16;;;;;;;33.15;18.90;;;;;;;-144.74;100.00;63161.41;4953277;28;20093;-66
2024/01/30 09:22:42;;;;;;;31.98;18.48;;;;;;;-144.74;100.00;63161.41;4952812;28;20080;-66
2024/01/30 09:25:07;;;;;;;34.50;17.38;;;;;;;-144.74;100.00;63161.41;4950815;28;20039;-67
2024/01/30 09:27:32;;;;;;;33.13;17.30;;;;;;;-144.74;100.00;63161.41;4953960;28;20474;-67
2024/01/30 09:29:58;;;;;;;37.88;17.40;;;;;;;-144.74;100.00;63161.41;4968776;28;20035;-67
2024/01/30 09:32:23;;;;;;;30.65;15.57;;;;;;;-144.74;100.00;63161.41;4951370;28;20140;-67
2024/01/30 09:34:48;;;;;;;34.40;16.85;;;;;;;-144.74;100.00;63161.41;4949481;28;20035;-65
2024/01/30 09:37:15;;;;;;;27.35;16.50;;;;;;;-144.74;100.00;63161.41;4955114;28;20061;-66
2024/01/30 09:39:41;;;;;;;29.55;16.75;;;;;;;-144.74;100.00;63161.41;4956837;28;20066;-66
2024/01/30 09:42:32;;;;;;;28.90;17.13;;;;;;;-144.74;100.00;63161.41;4961298;28;20081;-67
2024/01/30 09:44:58;;;;;;;32.85;17.55;;;;;;;-144.74;100.00;63161.41;4968334;28;20047;-66
2024/01/30 09:47:24;;;;;;;43.75;17.45;;;;;;;-144.74;100.00;63161.41;4969574;28;20019;-67
2024/01/30 09:49:51;;;;;;;39.08;17.15;;;;;;;-144.74;100.00;63161.41;4953641;28;20027;-67
2024/01/30 09:52:16;;;;;;;39.50;16.98;;;;;;;-144.74;100.00;63161.41;4953469;28;20027;-66
2024/01/30 09:54:43;;;;;;;35.63;16.75;;;;;;;-144.74;100.00;63161.41;4948200;28;20030;-67
2024/01/30 09:57:09;;;;;;;33.28;17.23;;;;;;;-144.74;100.00;63161.41;4955079;28;20046;-66
2024/01/30 09:59:34;;;;;;;35.33;17.40;;;;;;;-144.74;100.00;63161.41;4941307;28;20054;-67
2024/01/30 10:02:00;;;;;;;32.45;16.85;;;;;;;-144.74;100.00;63161.41;4946734;28;20050;-67
2024/01/30 10:04:25;;;;;;;32.80;17.25;;;;;;;-144.74;100.00;63161.41;4967863;28;20034;-67
2024/01/30 10:06:51;;;;;;;34.00;16.85;;;;;;;-144.74;100.00;63161.41;4975494;28;20027;-67
2024/01/30 10:09:16;;;;;;;30.70;18.02;;;;;;;-144.74;100.00;63161.41;4972393;28;20039;-67
2024/01/30 10:11:41;;;;;;;37.15;17.35;;;;;;;-144.74;100.00;63161.41;4971945;28;20061;-67
2024/01/30 10:14:07;;;;;;;35.90;16.80;;;;;;;-144.74;100.00;63161.41;4949140;28;20027;-66
2024/01/30 10:16:34;;;;;;;31.55;16.23;;;;;;;-144.74;100.00;63161.41;4963803;28;20156;-67
2024/01/30 10:18:59;;;;;;;36.22;16.55;;;;;;;-144.74;100.00;63161.41;4975556;28;20030;-67
2024/01/30 10:21:25;;;;;;;28.58;16.77;;;;;;;-144.74;100.00;63161.41;4973612;28;20101;-67
2024/01/30 10:23:50;;;;;;;35.50;16.85;;;;;;;-144.74;100.00;63161.41;4954548;28;20030;-67
2024/01/30 10:26:18;;;;;;;29.70;14.93;;;;;;;-144.74;100.00;63161.41;4965635;28;20096;-67
2024/01/30 10:28:44;;;;;;;31.17;15.70;;;;;;;-144.74;100.00;63161.41;4964863;28;20046;-67
2024/01/30 10:31:10;;;;;;;34.97;15.48;;;;;;;-144.74;100.00;63161.41;4967387;28;20046;-66
2024/01/30 10:33:35;;;;;;;26.42;14.68;;;;;;;-144.74;100.00;63161.41;4952795;28;20038;-67
2024/01/30 10:36:03;;;;;;;30.95;15.05;;;;;;;-144.74;100.00;63161.41;4958077;28;20040;-67
2024/01/30 10:38:29;;;;;;;27.25;15.70;;;;;;;-144.74;100.00;63161.41;4972347;28;20110;-67
2024/01/30 10:40:59;;;;;;;30.55;14.93;;;;;;;-144.74;100.00;63161.41;4969154;28;20089;-66
2024/01/30 10:43:35;;;;;;;28.85;15.27;;;;;;;-144.74;100.00;63161.41;4952577;28;20101;-67
2024/01/30 10:46:12;;;;;;;23.33;14.32;;;;;;;-144.74;100.00;63161.41;4951715;28;20043;-68
2024/01/30 10:48:42;;;;;;;26.58;15.75;;;;;;;-144.74;100.00;63161.41;4969107;28;20078;-66
2024/01/30 10:51:09;;;;;;;29.10;15.60;;;;;;;-144.74;100.00;63161.41;4960589;28;20050;-68